Time;durP1;ratioP1;P1;durP2;ratioP2;P2;SDS_P1;SDS_P2;PMS_P1;PMS_P2;Temp;Humidity;BMP_temperature;BMP_pressure;BME280_temperature;BME280_humidity;BME280_pressure;Samples;Min_cycle;Max_cycle;Signal;HPM_P1;HPM_P2
2022/04/22 00:00:00;;;;;;;4.53;3.33;;;;;;;-140.79;100.00;63287.88;5043858;28;20108;-55
2022/04/22 00:02:25;;;;;;;3.72;3.13;;;;;;;-140.79;100.00;63287.88;5043764;28;20040;-54
2022/04/22 00:04:51;;;;;;;4.57;3.22;;;;;;;-140.79;100.00;63287.88;5043681;28;20060;-54
2022/04/22 00:07:16;;;;;;;4.10;3.03;;;;;;;-140.79;100.00;63287.88;5042977;28;20106;-55
2022/04/22 00:09:42;;;;;;;4.15;2.97;;;;;;;-140.79;100.00;63287.88;5043687;28;20482;-54
2022/04/22 00:12:08;;;;;;;4.25;3.20;;;;;;;-140.79;100.00;63287.88;5026005;28;20021;-59
2022/04/22 00:14:33;;;;;;;4.82;3.25;;;;;;;-140.79;100.00;63287.88;5043787;28;20032;-54
2022/04/22 00:16:59;;;;;;;3.95;3.20;;;;;;;-140.79;100.00;63287.88;5043051;28;20032;-54
2022/04/22 00:19:24;;;;;;;4.72;3.08;;;;;;;-140.79;100.00;63287.88;5043358;28;20037;-54
2022/04/22 00:21:50;;;;;;;4.05;2.95;;;;;;;-140.79;100.00;63287.88;5043956;28;20029;-54
2022/04/22 00:24:16;;;;;;;3.80;3.10;;;;;;;-140.79;100.00;63287.88;5044028;28;20029;-54
2022/04/22 00:26:41;;;;;;;4.55;2.95;;;;;;;-140.79;100.00;63287.88;5043895;28;20033;-55
2022/04/22 00:29:07;;;;;;;4.28;3.00;;;;;;;-140.79;100.00;63287.88;5043747;28;20037;-54
2022/04/22 00:31:33;;;;;;;3.65;2.90;;;;;;;-140.79;100.00;63287.88;5045964;28;20040;-54
2022/04/22 00:33:58;;;;;;;4.05;3.22;;;;;;;-140.79;100.00;63287.88;5057673;28;20089;-54
2022/04/22 00:36:24;;;;;;;3.90;2.72;;;;;;;-140.79;100.00;63287.88;5047778;28;20025;-55
2022/04/22 00:38:49;;;;;;;4.18;3.30;;;;;;;-140.79;100.00;63287.88;5047907;28;20036;-55
2022/04/22 00:41:14;;;;;;;3.83;3.20;;;;;;;-140.79;100.00;63287.88;5046934;28;20033;-54
2022/04/22 00:43:42;;;;;;;4.07;3.05;;;;;;;-140.79;100.00;63287.88;5047418;28;20036;-55
2022/04/22 00:46:07;;;;;;;3.33;2.55;;;;;;;-140.79;100.00;63287.88;5047556;28;20033;-54
2022/04/22 00:48:33;;;;;;;3.97;2.90;;;;;;;-140.79;100.00;63287.88;5047369;28;20602;-55
2022/04/22 00:50:58;;;;;;;3.78;3.15;;;;;;;-140.79;100.00;63287.88;5029433;28;20024;-54
2022/04/22 00:53:25;;;;;;;3.70;2.95;;;;;;;-140.79;100.00;63287.88;5063199;28;20024;-54
2022/04/22 00:55:50;;;;;;;4.30;3.15;;;;;;;-140.79;100.00;63287.88;5047284;28;20029;-55
2022/04/22 00:58:15;;;;;;;4.57;3.28;;;;;;;-140.79;100.00;63287.88;5028139;28;20439;-54
2022/04/22 01:00:41;;;;;;;3.80;3.08;;;;;;;-140.79;100.00;63287.88;5025886;28;20049;-55
2022/04/22 01:03:06;;;;;;;4.18;3.00;;;;;;;-140.79;100.00;63287.88;5043018;28;20727;-54
2022/04/22 01:11:00;;;;;;;5.10;3.33;;;;;;;-140.79;100.00;63287.88;5047360;28;20040;-54
2022/04/22 01:13:26;;;;;;;3.88;3.00;;;;;;;-140.79;100.00;63287.88;5029068;28;20029;-54
2022/04/22 01:15:51;;;;;;;3.42;2.92;;;;;;;-140.79;100.00;63287.88;5046908;28;20096;-54
2022/04/22 01:18:17;;;;;;;3.35;2.75;;;;;;;-140.79;100.00;63287.88;5047056;28;20373;-54
2022/04/22 01:20:42;;;;;;;3.88;2.95;;;;;;;-140.79;100.00;63287.88;5028996;28;20061;-54
2022/04/22 01:23:08;;;;;;;3.58;3.00;;;;;;;-140.79;100.00;63287.88;5046809;28;20040;-53
2022/04/22 01:25:33;;;;;;;3.65;2.90;;;;;;;-140.79;100.00;63287.88;5028522;28;20025;-54
2022/04/22 01:27:59;;;;;;;4.50;3.42;;;;;;;-140.79;100.00;63287.88;5046258;28;20480;-54
2022/04/22 01:30:24;;;;;;;3.75;2.83;;;;;;;-140.79;100.00;63287.88;5046313;28;20053;-54
2022/04/22 01:32:56;;;;;;;3.78;2.75;;;;;;;-140.79;100.00;63287.88;5045125;28;20029;-54
2022/04/22 01:35:23;;;;;;;3.40;3.00;;;;;;;-140.79;100.00;63287.88;5046259;28;20037;-54
2022/04/22 01:37:48;;;;;;;3.97;2.95;;;;;;;-140.79;100.00;63287.88;5050779;28;20036;-54
2022/04/22 01:40:14;;;;;;;3.28;2.70;;;;;;;-140.79;100.00;63287.88;5066142;28;20024;-55
2022/04/22 01:42:40;;;;;;;4.35;3.20;;;;;;;-140.79;100.00;63287.88;5066393;28;20066;-54
2022/04/22 01:45:06;;;;;;;3.58;2.80;;;;;;;-140.79;100.00;63287.88;5066326;28;20032;-55
2022/04/22 01:47:32;;;;;;;4.45;3.20;;;;;;;-140.79;100.00;63287.88;5065175;28;20024;-54
2022/04/22 01:49:57;;;;;;;3.33;2.92;;;;;;;-140.79;100.00;63287.88;5066008;28;20035;-54
2022/04/22 01:52:23;;;;;;;4.57;3.17;;;;;;;-140.79;100.00;63287.88;5056596;28;20029;-54
2022/04/22 01:54:53;;;;;;;3.97;3.38;;;;;;;-140.79;100.00;63287.88;5046051;28;20039;-54
2022/04/22 01:57:19;;;;;;;4.18;3.25;;;;;;;-140.79;100.00;63287.88;5045613;28;20037;-55
2022/04/22 01:59:46;;;;;;;3.08;2.70;;;;;;;-140.79;100.00;63287.88;5027966;28;20025;-54
2022/04/22 02:02:12;;;;;;;4.22;2.95;;;;;;;-140.79;100.00;63287.88;5045837;28;20634;-54
2022/04/22 02:04:38;;;;;;;4.15;3.30;;;;;;;-140.79;100.00;63287.88;5028212;28;20032;-54
2022/04/22 02:07:03;;;;;;;4.00;3.17;;;;;;;-140.79;100.00;63287.88;5046012;28;20036;-54
2022/04/22 02:09:29;;;;;;;3.85;2.85;;;;;;;-140.79;100.00;63287.88;5045663;28;20529;-54
2022/04/22 02:11:56;;;;;;;3.90;3.00;;;;;;;-140.79;100.00;63287.88;5051476;28;20025;-54
2022/04/22 02:14:22;;;;;;;3.17;2.72;;;;;;;-140.79;100.00;63287.88;5056136;28;20047;-54
2022/04/22 02:16:47;;;;;;;3.53;3.10;;;;;;;-140.79;100.00;63287.88;5045636;28;20040;-55
2022/04/22 02:19:13;;;;;;;4.70;3.05;;;;;;;-140.79;100.00;63287.88;5045767;28;20094;-55
2022/04/22 02:21:38;;;;;;;3.90;2.85;;;;;;;-140.79;100.00;63287.88;5045571;28;20029;-54
2022/04/22 02:24:04;;;;;;;3.17;2.58;;;;;;;-140.79;100.00;63287.88;5045214;28;20040;-54
2022/04/22 02:28:31;;;;;;;3.88;2.80;;;;;;;-140.79;100.00;63287.88;5045558;28;20025;-54
2022/04/22 02:29:15;;;;;;;4.20;3.05;;;;;;;-140.79;100.00;63287.88;5045232;28;20120;-55
2022/04/22 02:31:40;;;;;;;3.20;2.67;;;;;;;-140.79;100.00;63287.88;5048624;28;20028;-54
2022/04/22 02:34:05;;;;;;;3.97;3.10;;;;;;;-140.79;100.00;63287.88;5057910;28;20025;-54
2022/04/22 02:36:31;;;;;;;3.13;2.53;;;;;;;-140.79;100.00;63287.88;5045211;28;20040;-54
2022/04/22 02:38:56;;;;;;;3.30;3.00;;;;;;;-140.79;100.00;63287.88;5044665;28;20048;-54
2022/04/22 02:46:50;;;;;;;3.97;3.05;;;;;;;-140.79;100.00;63287.88;5045162;28;20071;-54
2022/04/22 02:49:15;;;;;;;3.92;2.90;;;;;;;-140.79;100.00;63287.88;5045358;28;20033;-54
2022/04/22 02:51:41;;;;;;;3.33;2.97;;;;;;;-140.79;100.00;63287.88;5048187;28;20055;-54
2022/04/22 02:54:06;;;;;;;3.50;2.90;;;;;;;-140.79;100.00;63287.88;5057804;28;20090;-54
2022/04/22 02:56:32;;;;;;;3.22;2.60;;;;;;;-140.79;100.00;63287.88;5044052;28;20048;-54
2022/04/22 02:58:57;;;;;;;3.15;2.58;;;;;;;-140.79;100.00;63287.88;5035939;28;20040;-54
2022/04/22 03:01:23;;;;;;;3.25;2.80;;;;;;;-140.79;100.00;63287.88;5038490;28;20026;-55
2022/04/22 03:03:48;;;;;;;3.90;2.92;;;;;;;-140.79;100.00;63287.88;5044438;28;20033;-55
2022/04/22 03:06:14;;;;;;;3.17;2.83;;;;;;;-140.79;100.00;63287.88;5010639;28;20028;-54
2022/04/22 03:08:39;;;;;;;3.53;2.63;;;;;;;-140.79;100.00;63287.88;5044953;28;20025;-55
2022/04/22 03:11:05;;;;;;;3.40;2.92;;;;;;;-140.79;100.00;63287.88;5044854;28;20064;-55
2022/04/22 03:13:30;;;;;;;3.38;2.72;;;;;;;-140.79;100.00;63287.88;5060540;28;20453;-55
2022/04/22 03:15:57;;;;;;;3.40;3.08;;;;;;;-140.79;100.00;63287.88;5044771;28;20416;-55
2022/04/22 03:18:23;;;;;;;3.40;2.60;;;;;;;-140.79;100.00;63287.88;5027080;28;20412;-55
2022/04/22 03:20:48;;;;;;;3.30;2.72;;;;;;;-140.79;100.00;63287.88;5039944;28;20022;-55
2022/04/22 03:23:14;;;;;;;3.10;2.80;;;;;;;-140.79;100.00;63287.88;5023229;28;20021;-55
2022/04/22 03:25:41;;;;;;;3.53;2.97;;;;;;;-140.79;100.00;63287.88;5024769;28;20603;-55
2022/04/22 03:28:06;;;;;;;4.35;3.10;;;;;;;-140.79;100.00;63287.88;5026346;28;20085;-55
2022/04/22 03:30:34;;;;;;;3.65;2.95;;;;;;;-140.79;100.00;63287.88;5023981;28;20067;-54
2022/04/22 03:33:01;;;;;;;3.25;2.42;;;;;;;-140.79;100.00;63287.88;5022635;28;20080;-54
2022/04/22 03:35:27;;;;;;;4.20;3.15;;;;;;;-140.79;100.00;63287.88;5028186;28;20107;-55
2022/04/22 03:37:52;;;;;;;3.13;2.70;;;;;;;-140.79;100.00;63287.88;5029525;28;20511;-55
2022/04/22 03:40:18;;;;;;;3.83;2.72;;;;;;;-140.79;100.00;63287.88;5044368;28;20033;-55
2022/04/22 03:42:43;;;;;;;3.83;3.13;;;;;;;-140.79;100.00;63287.88;5045503;28;20025;-55
2022/04/22 03:45:09;;;;;;;3.50;2.80;;;;;;;-140.79;100.00;63287.88;5044476;28;20025;-55
2022/04/22 03:47:34;;;;;;;3.58;2.85;;;;;;;-140.79;100.00;63287.88;5043478;28;20029;-55
2022/04/22 03:49:59;;;;;;;3.55;2.50;;;;;;;-140.79;100.00;63287.88;5044596;28;20416;-55
2022/04/22 03:52:25;;;;;;;3.60;2.88;;;;;;;-140.79;100.00;63287.88;5044342;28;20408;-55
2022/04/22 03:54:51;;;;;;;3.65;2.90;;;;;;;-140.79;100.00;63287.88;5057342;28;20029;-55
2022/04/22 04:00:00;;;;;;;3.67;2.90;;;;;;;-140.79;100.00;63287.88;5043231;28;20130;-55
2022/04/22 04:02:26;;;;;;;3.78;2.95;;;;;;;-140.79;100.00;63287.88;5027187;28;20696;-55
2022/04/22 04:04:51;;;;;;;2.90;2.55;;;;;;;-140.79;100.00;63287.88;5028693;28;20036;-55
2022/04/22 04:07:17;;;;;;;3.42;2.60;;;;;;;-140.79;100.00;63287.88;5038868;28;20037;-55
2022/04/22 04:17:54;;;;;;;3.00;2.55;;;;;;;-140.79;100.00;63287.88;5026226;28;20040;-55
2022/04/22 04:23:16;;;;;;;3.95;2.90;;;;;;;-140.79;100.00;63287.88;5027834;28;20037;-54
2022/04/22 04:25:43;;;;;;;3.72;2.83;;;;;;;-140.79;100.00;63287.88;5047764;28;20518;-54
2022/04/22 04:28:11;;;;;;;3.42;2.55;;;;;;;-140.79;100.00;63287.88;5048225;28;20048;-54
2022/04/22 04:30:40;;;;;;;2.95;2.40;;;;;;;-140.79;100.00;63287.88;5048160;28;20107;-54
2022/04/22 04:33:06;;;;;;;3.33;2.40;;;;;;;-140.79;100.00;63287.88;5062908;28;20491;-54
2022/04/22 04:35:31;;;;;;;3.25;2.35;;;;;;;-140.79;100.00;63287.88;5063593;28;20027;-54
2022/04/22 04:37:57;;;;;;;2.70;2.45;;;;;;;-140.79;100.00;63287.88;5053694;28;20093;-53
2022/04/22 04:40:22;;;;;;;3.17;2.47;;;;;;;-140.79;100.00;63287.88;5069195;28;20052;-53
2022/04/22 04:42:48;;;;;;;3.50;2.28;;;;;;;-140.79;100.00;63287.88;5045760;28;20423;-53
2022/04/22 04:45:13;;;;;;;3.50;2.67;;;;;;;-140.79;100.00;63287.88;5026393;28;20028;-55
2022/04/22 04:47:42;;;;;;;2.90;2.28;;;;;;;-140.79;100.00;63287.88;5027532;28;20041;-54
2022/04/22 04:50:08;;;;;;;3.72;2.70;;;;;;;-140.79;100.00;63287.88;5037182;28;20132;-54
2022/04/22 04:52:37;;;;;;;4.70;2.38;;;;;;;-140.79;100.00;63287.88;5029885;28;20099;-55
2022/04/22 04:55:13;;;;;;;3.33;2.60;;;;;;;-140.79;100.00;63287.88;5062959;28;20078;-56
2022/04/22 04:57:38;;;;;;;3.40;2.53;;;;;;;-140.79;100.00;63287.88;5047423;28;20029;-56
2022/04/22 05:00:09;;;;;;;2.65;2.30;;;;;;;-140.79;100.00;63287.88;5056608;28;20021;-54
2022/04/22 05:02:35;;;;;;;4.15;2.42;;;;;;;-140.79;100.00;63287.88;5069444;28;20043;-56
2022/04/22 05:05:00;;;;;;;3.25;2.95;;;;;;;-140.79;100.00;63287.88;5034584;28;20405;-55
2022/04/22 05:07:26;;;;;;;3.35;2.67;;;;;;;-140.79;100.00;63287.88;5030540;28;20021;-54
2022/04/22 05:09:51;;;;;;;4.55;2.65;;;;;;;-140.79;100.00;63287.88;5034454;28;20182;-55
2022/04/22 05:12:17;;;;;;;3.17;2.50;;;;;;;-140.79;100.00;63287.88;5031784;28;20028;-56
2022/04/22 05:14:42;;;;;;;3.38;2.40;;;;;;;-140.79;100.00;63287.88;5030565;28;20064;-56
2022/04/22 05:17:08;;;;;;;3.10;2.60;;;;;;;-140.79;100.00;63287.88;5028625;28;20048;-55
2022/04/22 05:19:33;;;;;;;2.70;2.40;;;;;;;-140.79;100.00;63287.88;5038899;28;20036;-54
2022/04/22 05:21:59;;;;;;;2.80;2.28;;;;;;;-140.79;100.00;63287.88;5034069;28;20025;-55
2022/04/22 05:24:24;;;;;;;2.97;2.38;;;;;;;-140.79;100.00;63287.88;5046777;28;20424;-55
2022/04/22 05:26:50;;;;;;;3.60;2.70;;;;;;;-140.79;100.00;63287.88;5044458;28;20477;-55
2022/04/22 05:34:43;;;;;;;3.63;2.50;;;;;;;-140.79;100.00;63287.88;5049561;28;20115;-56
2022/04/22 05:37:09;;;;;;;2.60;2.20;;;;;;;-140.79;100.00;63287.88;5033613;28;20029;-52
2022/04/22 05:39:34;;;;;;;2.78;2.30;;;;;;;-140.79;100.00;63287.88;5046492;28;20036;-54
2022/04/22 05:42:01;;;;;;;4.00;2.05;;;;;;;-140.79;100.00;63287.88;5046613;28;20017;-54
2022/04/22 05:44:27;;;;;;;2.80;2.10;;;;;;;-140.79;100.00;63287.88;5035632;28;20033;-55
2022/04/22 05:46:53;;;;;;;3.10;2.47;;;;;;;-140.79;100.00;63287.88;5046573;28;20432;-56
2022/04/22 05:49:18;;;;;;;3.50;2.40;;;;;;;-140.79;100.00;63287.88;5046310;28;20036;-53
2022/04/22 05:51:44;;;;;;;2.65;2.42;;;;;;;-140.79;100.00;63287.88;5044686;28;20499;-55
2022/04/22 05:54:09;;;;;;;2.50;2.08;;;;;;;-140.79;100.00;63287.88;5043741;28;20103;-54
2022/04/22 05:56:35;;;;;;;4.78;2.38;;;;;;;-140.79;100.00;63287.88;5035850;28;20475;-54
2022/04/22 05:59:02;;;;;;;3.83;2.40;;;;;;;-140.79;100.00;63287.88;5044711;28;20117;-54
2022/04/22 06:01:27;;;;;;;4.47;2.47;;;;;;;-140.79;100.00;63287.88;5029109;28;20110;-54
2022/04/22 06:03:52;;;;;;;3.67;2.50;;;;;;;-140.79;100.00;63287.88;5066339;28;20028;-55
2022/04/22 06:06:18;;;;;;;4.65;2.60;;;;;;;-140.79;100.00;63287.88;5066169;28;20032;-56
2022/04/22 06:11:27;;;;;;;3.03;2.40;;;;;;;-140.79;100.00;63287.88;5066186;28;20510;-55
2022/04/22 06:13:53;;;;;;;3.03;2.20;;;;;;;-140.79;100.00;63287.88;5061967;28;20032;-54
2022/04/22 06:16:18;;;;;;;5.35;2.75;;;;;;;-140.79;100.00;63287.88;5046018;28;20033;-53
2022/04/22 06:18:44;;;;;;;4.40;2.28;;;;;;;-140.79;100.00;63287.88;5046335;28;20040;-55
2022/04/22 06:21:09;;;;;;;4.65;2.45;;;;;;;-140.79;100.00;63287.88;5046635;28;20424;-54
2022/04/22 06:23:34;;;;;;;5.40;2.78;;;;;;;-140.79;100.00;63287.88;5043653;28;20424;-55
2022/04/22 06:26:00;;;;;;;5.22;2.97;;;;;;;-140.79;100.00;63287.88;5036135;28;20455;-53
2022/04/22 06:28:25;;;;;;;5.68;2.65;;;;;;;-140.79;100.00;63287.88;5027469;28;20022;-54
2022/04/22 06:30:51;;;;;;;4.40;2.25;;;;;;;-140.79;100.00;63287.88;5027559;28;20099;-53
2022/04/22 06:33:18;;;;;;;3.97;2.75;;;;;;;-140.79;100.00;63287.88;5026874;28;20124;-55
2022/04/22 06:35:44;;;;;;;5.38;2.45;;;;;;;-140.79;100.00;63287.88;5028666;28;20126;-52
2022/04/22 06:38:09;;;;;;;4.07;2.50;;;;;;;-140.79;100.00;63287.88;5027493;28;20064;-54
2022/04/22 06:46:03;;;;;;;3.70;2.22;;;;;;;-140.79;100.00;63287.88;5045677;28;20094;-54
2022/04/22 06:48:35;;;;;;;4.20;2.60;;;;;;;-140.79;100.00;63287.88;5036977;28;20458;-53
2022/04/22 06:51:01;;;;;;;4.20;2.40;;;;;;;-140.79;100.00;63287.88;5011662;28;20045;-55
2022/04/22 06:53:27;;;;;;;4.43;2.33;;;;;;;-140.79;100.00;63287.88;5027689;28;20105;-55
2022/04/22 06:55:53;;;;;;;4.93;2.90;;;;;;;-140.79;100.00;63287.88;5029847;28;20029;-53
2022/04/22 06:58:20;;;;;;;3.78;2.50;;;;;;;-140.79;100.00;63287.88;5036049;28;20041;-53
2022/04/22 07:00:46;;;;;;;4.35;2.22;;;;;;;-140.79;100.00;63287.88;5030435;28;20436;-54
2022/04/22 07:03:12;;;;;;;4.18;2.58;;;;;;;-140.79;100.00;63287.88;5026489;28;20030;-53
2022/04/22 07:05:39;;;;;;;3.15;2.08;;;;;;;-140.79;100.00;63287.88;5043715;28;20037;-53
2022/04/22 07:08:06;;;;;;;3.47;2.17;;;;;;;-140.79;100.00;63287.88;5043997;28;20028;-54
2022/04/22 07:10:35;;;;;;;3.55;2.30;;;;;;;-140.79;100.00;63287.88;5034358;28;20546;-54
2022/04/22 07:13:01;;;;;;;8.23;2.90;;;;;;;-140.79;100.00;63287.88;5029650;28;20013;-53
2022/04/22 07:15:26;;;;;;;8.73;3.03;;;;;;;-140.79;100.00;63287.88;5061200;28;20029;-53
2022/04/22 07:17:52;;;;;;;6.10;2.90;;;;;;;-140.79;100.00;63287.88;5038069;28;20480;-53
2022/04/22 07:20:18;;;;;;;8.20;2.70;;;;;;;-140.79;100.00;63287.88;5031025;28;20120;-54
2022/04/22 07:22:44;;;;;;;7.63;3.00;;;;;;;-140.79;100.00;63287.88;5031794;28;20041;-52
2022/04/22 07:25:11;;;;;;;8.05;2.95;;;;;;;-140.79;100.00;63287.88;5024850;28;20029;-52
2022/04/22 07:27:37;;;;;;;5.47;2.60;;;;;;;-140.79;100.00;63287.88;5032627;28;20443;-53
2022/04/22 07:30:05;;;;;;;7.80;3.45;;;;;;;-140.79;100.00;63287.88;5026553;28;20025;-54
2022/04/22 07:32:30;;;;;;;5.68;2.42;;;;;;;-140.79;100.00;63287.88;5026056;28;20044;-54
2022/04/22 07:34:56;;;;;;;5.80;3.05;;;;;;;-140.79;100.00;63287.88;5029446;28;20022;-55
2022/04/22 07:37:22;;;;;;;6.57;2.83;;;;;;;-140.79;100.00;63287.88;5024917;28;20660;-54
2022/04/22 07:39:48;;;;;;;5.03;2.80;;;;;;;-140.79;100.00;63287.88;5044377;28;20460;-55
2022/04/22 07:42:15;;;;;;;6.05;2.75;;;;;;;-140.79;100.00;63287.88;5029176;28;20032;-53
2022/04/22 07:47:27;;;;;;;4.57;2.95;;;;;;;-140.79;100.00;63287.88;5023734;28;20095;-52
2022/04/22 07:49:52;;;;;;;5.55;2.72;;;;;;;-140.79;100.00;63287.88;5023856;28;20030;-53
2022/04/22 07:52:18;;;;;;;4.78;2.70;;;;;;;-140.79;100.00;63287.88;5034179;28;20416;-52
2022/04/22 07:54:43;;;;;;;6.43;2.55;;;;;;;-140.79;100.00;63287.88;5055232;28;20044;-52
2022/04/22 07:57:10;;;;;;;5.43;3.00;;;;;;;-140.79;100.00;63287.88;5041642;28;20025;-52
2022/04/22 07:59:36;;;;;;;4.60;2.60;;;;;;;-140.79;100.00;63287.88;5024964;28;20475;-51
2022/04/22 08:02:02;;;;;;;6.55;3.00;;;;;;;-140.79;100.00;63287.88;5023693;28;20025;-52
2022/04/22 08:04:27;;;;;;;4.60;2.80;;;;;;;-140.79;100.00;63287.88;5029764;28;20359;-52
2022/04/22 08:06:53;;;;;;;5.90;3.10;;;;;;;-140.79;100.00;63287.88;5023775;28;20640;-53
2022/04/22 08:09:18;;;;;;;4.93;2.63;;;;;;;-140.79;100.00;63287.88;5023331;28;20026;-53
2022/04/22 08:11:44;;;;;;;4.28;2.72;;;;;;;-140.79;100.00;63287.88;5023381;28;20028;-53
2022/04/22 08:14:12;;;;;;;4.13;2.72;;;;;;;-140.79;100.00;63287.88;5024138;28;20033;-52
2022/04/22 08:16:40;;;;;;;5.07;2.60;;;;;;;-140.79;100.00;63287.88;5026892;28;20065;-51
2022/04/22 08:19:06;;;;;;;5.85;3.17;;;;;;;-140.79;100.00;63287.88;5026936;28;20052;-52
2022/04/22 08:21:34;;;;;;;6.30;2.97;;;;;;;-140.79;100.00;63287.88;5023568;28;20060;-52
2022/04/22 08:24:03;;;;;;;3.75;2.65;;;;;;;-140.79;100.00;63287.88;5024593;28;20014;-53
2022/04/22 08:26:31;;;;;;;5.78;2.75;;;;;;;-140.79;100.00;63287.88;5024641;28;20646;-53
2022/04/22 08:28:56;;;;;;;5.30;2.65;;;;;;;-140.79;100.00;63287.88;5027221;28;20490;-53
2022/04/22 08:31:22;;;;;;;4.45;2.67;;;;;;;-140.79;100.00;63287.88;5040307;28;20041;-53
2022/04/22 08:33:49;;;;;;;5.35;2.70;;;;;;;-140.79;100.00;63287.88;5046979;28;20032;-53
2022/04/22 08:36:15;;;;;;;5.55;2.50;;;;;;;-140.79;100.00;63287.88;5057486;28;20029;-51
2022/04/22 08:38:40;;;;;;;3.97;2.42;;;;;;;-140.79;100.00;63287.88;5015914;28;20568;-52
2022/04/22 08:41:07;;;;;;;6.63;2.83;;;;;;;-140.79;100.00;63287.88;5031107;28;20029;-54
2022/04/22 08:43:33;;;;;;;6.28;3.47;;;;;;;-140.79;100.00;63287.88;5026698;28;20037;-51
2022/04/22 08:45:58;;;;;;;7.25;4.18;;;;;;;-140.79;100.00;63287.88;5042690;28;20033;-51
2022/04/22 08:51:08;;;;;;;7.18;3.80;;;;;;;-140.79;100.00;63287.88;5044631;28;20589;-53
2022/04/22 08:53:34;;;;;;;7.05;3.53;;;;;;;-140.79;100.00;63287.88;5028572;28;20029;-53
2022/04/22 08:56:01;;;;;;;6.88;3.85;;;;;;;-140.79;100.00;63287.88;5043016;28;20415;-52
2022/04/22 08:58:27;;;;;;;7.53;3.78;;;;;;;-140.79;100.00;63287.88;5023639;28;20029;-53
2022/04/22 09:00:54;;;;;;;6.45;3.42;;;;;;;-140.79;100.00;63287.88;5038705;28;20521;-54
2022/04/22 09:03:20;;;;;;;6.15;3.90;;;;;;;-140.79;100.00;63287.88;5014896;28;20029;-52
2022/04/22 09:05:45;;;;;;;7.55;3.67;;;;;;;-140.79;100.00;63287.88;5029487;28;20511;-53
2022/04/22 09:08:11;;;;;;;6.60;3.85;;;;;;;-140.79;100.00;63287.88;5013320;28;20638;-53
2022/04/22 09:10:38;;;;;;;6.75;4.05;;;;;;;-140.79;100.00;63287.88;5029927;28;20033;-52
2022/04/22 09:13:09;;;;;;;5.05;3.63;;;;;;;-140.79;100.00;63287.88;5047780;28;20082;-52
2022/04/22 09:15:35;;;;;;;7.63;3.70;;;;;;;-140.79;100.00;63287.88;5027375;28;20179;-54
2022/04/22 09:18:11;;;;;;;7.75;4.10;;;;;;;-140.79;100.00;63287.88;5029368;28;20496;-53
2022/04/22 09:20:36;;;;;;;6.88;3.65;;;;;;;-140.79;100.00;63287.88;5047301;28;20430;-54
2022/04/22 09:23:05;;;;;;;7.07;4.20;;;;;;;-140.79;100.00;63287.88;5030593;28;20097;-51
2022/04/22 09:25:31;;;;;;;6.43;4.03;;;;;;;-140.79;100.00;63287.88;5024416;28;20029;-52
2022/04/22 09:28:09;;;;;;;5.82;3.78;;;;;;;-140.79;100.00;63287.88;5045634;28;20021;-52
2022/04/22 09:30:35;;;;;;;4.90;4.00;;;;;;;-140.79;100.00;63287.88;5025437;28;20049;-52
2022/04/22 09:33:00;;;;;;;6.72;4.03;;;;;;;-140.79;100.00;63287.88;5039532;28;20040;-53
2022/04/22 09:35:28;;;;;;;10.40;4.88;;;;;;;-140.79;100.00;63287.88;5027791;28;20071;-52
2022/04/22 09:43:47;;;;;;;7.80;4.88;;;;;;;-140.79;100.00;63287.88;5042775;28;20824;-52
2022/04/22 09:46:23;;;;;;;7.03;4.43;;;;;;;-140.79;100.00;63287.88;5041960;28;20034;-52
2022/04/22 09:48:49;;;;;;;7.50;4.60;;;;;;;-140.79;100.00;63287.88;5038040;28;20029;-51
2022/04/22 09:51:23;;;;;;;8.02;4.75;;;;;;;-140.79;100.00;63287.88;5037318;28;20032;-52
2022/04/22 09:54:01;;;;;;;6.32;4.20;;;;;;;-140.79;100.00;63287.88;5032379;28;20094;-51
2022/04/22 09:56:27;;;;;;;6.00;4.45;;;;;;;-140.79;100.00;63287.88;5058442;28;20056;-50
2022/04/22 09:58:52;;;;;;;7.18;4.40;;;;;;;-140.79;100.00;63287.88;5046562;28;20029;-52
2022/04/22 10:01:17;;;;;;;7.13;4.55;;;;;;;-140.79;100.00;63287.88;5046417;28;20033;-51
2022/04/22 10:03:43;;;;;;;7.15;4.68;;;;;;;-140.79;100.00;63287.88;5028192;28;20416;-52
2022/04/22 10:06:09;;;;;;;7.38;4.18;;;;;;;-140.79;100.00;63287.88;5045724;28;20032;-51
2022/04/22 10:08:38;;;;;;;7.07;4.35;;;;;;;-140.79;100.00;63287.88;5027420;28;20033;-52
2022/04/22 10:11:05;;;;;;;6.25;4.03;;;;;;;-140.79;100.00;63287.88;5044662;28;20503;-51
2022/04/22 10:13:33;;;;;;;5.05;3.75;;;;;;;-140.79;100.00;63287.88;5027888;28;20692;-51
2022/04/22 10:15:59;;;;;;;6.10;3.92;;;;;;;-140.79;100.00;63287.88;5060864;28;20021;-52
2022/04/22 10:18:25;;;;;;;6.30;4.18;;;;;;;-140.79;100.00;63287.88;5027477;28;20033;-53
2022/04/22 10:20:50;;;;;;;5.57;4.20;;;;;;;-140.79;100.00;63287.88;5032515;28;20755;-53
2022/04/22 10:23:16;;;;;;;7.25;4.30;;;;;;;-140.79;100.00;63287.88;5027677;28;20074;-52
2022/04/22 10:25:41;;;;;;;10.80;3.60;;;;;;;-140.79;100.00;63287.88;5024550;28;20018;-53
2022/04/22 10:28:08;;;;;;;8.55;3.95;;;;;;;-140.79;100.00;63287.88;5025812;28;20022;-52
2022/04/22 10:30:34;;;;;;;6.60;3.65;;;;;;;-140.79;100.00;63287.88;5004637;28;20065;-52
2022/04/22 10:32:59;;;;;;;5.85;3.38;;;;;;;-140.79;100.00;63287.88;5002561;28;20472;-52
2022/04/22 10:35:25;;;;;;;6.45;3.25;;;;;;;-140.79;100.00;63287.88;5024124;28;20025;-52
2022/04/22 10:37:52;;;;;;;6.88;3.67;;;;;;;-140.79;100.00;63287.88;5024042;28;20087;-52
2022/04/22 10:40:21;;;;;;;4.88;3.38;;;;;;;-140.79;100.00;63287.88;5025870;28;20111;-52
2022/04/22 10:42:47;;;;;;;9.90;3.70;;;;;;;-140.79;100.00;63287.88;5025031;28;20488;-53
2022/04/22 10:47:56;;;;;;;6.28;3.47;;;;;;;-140.79;100.00;63287.88;5008900;28;20474;-52
2022/04/22 10:50:32;;;;;;;5.00;3.25;;;;;;;-140.79;100.00;63287.88;5021244;28;20029;-52
2022/04/22 10:53:02;;;;;;;6.88;3.35;;;;;;;-140.79;100.00;63287.88;5007065;28;20029;-53
2022/04/22 10:55:28;;;;;;;;;;;;;;;-140.79;100.00;63287.88;5009536;28;20523;-53
2022/04/22 10:58:12;;;;;;;5.57;3.47;;;;;;;-140.79;100.00;63287.88;5010103;28;19917;-54
2022/04/22 11:00:44;;;;;;;5.38;3.30;;;;;;;-140.79;100.00;63287.88;5005923;28;20088;-52
2022/04/22 11:03:14;;;;;;;5.55;2.70;;;;;;;-140.79;100.00;63287.88;5004624;28;20528;-53
2022/04/22 11:05:50;;;;;;;5.75;3.40;;;;;;;-140.79;100.00;63287.88;5006346;28;20084;-54
2022/04/22 11:08:26;;;;;;;5.38;3.20;;;;;;;-140.79;100.00;63287.88;5006332;28;20286;-54
2022/04/22 11:10:52;;;;;;;6.35;3.83;;;;;;;-140.79;100.00;63287.88;5003712;28;20033;-53
2022/04/22 11:13:42;;;;;;;6.75;3.30;;;;;;;-140.79;100.00;63287.88;5003311;28;20034;-53
2022/04/22 11:16:15;;;;;;;6.20;3.30;;;;;;;-140.79;100.00;63287.88;5005873;28;20041;-54
2022/04/22 11:18:44;;;;;;;7.25;3.45;;;;;;;-140.79;100.00;63287.88;5007810;28;20029;-54
2022/04/22 11:21:13;;;;;;;4.78;3.40;;;;;;;-140.79;100.00;63287.88;5021765;28;20025;-54
2022/04/22 11:23:40;;;;;;;5.88;3.00;;;;;;;-140.79;100.00;63287.88;5005377;28;20057;-53
2022/04/22 11:26:07;;;;;;;5.10;3.30;;;;;;;-140.79;100.00;63287.88;5003676;28;20049;-53
2022/04/22 11:28:36;;;;;;;6.00;3.22;;;;;;;-140.79;100.00;63287.88;5005820;28;20034;-54
2022/04/22 11:31:04;;;;;;;6.97;3.65;;;;;;;-140.79;100.00;63287.88;5017148;28;20048;-52
2022/04/22 11:33:35;;;;;;;6.22;3.53;;;;;;;-140.79;100.00;63287.88;5026124;28;20033;-53
2022/04/22 11:36:03;;;;;;;5.80;3.10;;;;;;;-140.79;100.00;63287.88;5012178;28;20033;-50
2022/04/22 11:38:31;;;;;;;6.45;3.97;;;;;;;-140.79;100.00;63287.88;5024942;28;20119;-52
2022/04/22 11:40:56;;;;;;;7.85;3.40;;;;;;;-140.79;100.00;63287.88;5029173;28;20476;-53
2022/04/22 11:43:21;;;;;;;7.13;3.30;;;;;;;-140.79;100.00;63287.88;5032169;28;20033;-53
2022/04/22 11:45:48;;;;;;;6.00;2.90;;;;;;;-140.79;100.00;63287.88;5028552;28;21426;-55
2022/04/22 11:48:24;;;;;;;6.50;3.45;;;;;;;-140.79;100.00;63287.88;5026077;28;20033;-53
2022/04/22 11:50:52;;;;;;;4.80;2.90;;;;;;;-140.79;100.00;63287.88;5024855;28;20044;-53
2022/04/22 11:53:19;;;;;;;5.68;2.90;;;;;;;-140.79;100.00;63287.88;5025484;28;20038;-52
2022/04/22 11:55:45;;;;;;;5.82;3.33;;;;;;;-140.79;100.00;63287.88;5029252;28;20481;-54
2022/04/22 11:58:11;;;;;;;5.18;3.13;;;;;;;-140.79;100.00;63287.88;5023347;28;20504;-52